Time;durP1;ratioP1;P1;durP2;ratioP2;P2;SDS_P1;SDS_P2;PMS_P1;PMS_P2;Temp;Humidity;BMP_temperature;BMP_pressure;BME280_temperature;BME280_humidity;BME280_pressure;Samples;Min_cycle;Max_cycle;Signal;HPM_P1;HPM_P2
2022/11/17 00:01:20;;;;;;;25.00;16.02;;;8.20;99.90;;;;;;5094913;28;20036;-66
2022/11/17 00:03:50;;;;;;;25.50;16.25;;;8.20;99.90;;;;;;5112924;28;20051;-66
2022/11/17 00:06:19;;;;;;;22.67;15.48;;;8.20;99.90;;;;;;5094029;28;20396;-66
2022/11/17 00:08:45;;;;;;;24.05;16.80;;;8.20;99.90;;;;;;5112751;28;20503;-66
2022/11/17 00:11:10;;;;;;;21.75;15.73;;;8.20;99.90;;;;;;5112279;28;20043;-66
2022/11/17 00:16:21;;;;;;;24.08;15.40;;;8.20;99.90;;;;;;5112714;28;20089;-66
2022/11/17 00:21:31;;;;;;;25.40;15.25;;;8.20;99.90;;;;;;5111650;28;20040;-66
2022/11/17 00:23:57;;;;;;;25.42;14.02;;;8.20;99.90;;;;;;5111511;28;20484;-66
2022/11/17 00:26:29;;;;;;;26.20;17.27;;;8.20;99.90;;;;;;5111807;28;20031;-66
2022/11/17 00:28:59;;;;;;;26.45;15.45;;;8.20;99.90;;;;;;5112136;28;20373;-66
2022/11/17 00:34:15;;;;;;;20.02;14.63;;;8.20;99.90;;;;;;5110408;28;20138;-66
2022/11/17 00:36:52;;;;;;;22.80;15.27;;;8.20;99.90;;;;;;5111888;28;20036;-66
2022/11/17 00:39:20;;;;;;;18.88;14.13;;;8.30;99.90;;;;;;5110376;28;20035;-66
2022/11/17 00:41:46;;;;;;;21.95;14.32;;;8.30;99.90;;;;;;5112213;28;20532;-66
2022/11/17 00:44:12;;;;;;;22.00;13.52;;;8.30;99.90;;;;;;5111431;28;20186;-66
2022/11/17 00:46:38;;;;;;;21.10;13.63;;;8.30;99.90;;;;;;5093524;28;20071;-66
2022/11/17 00:49:05;;;;;;;18.17;13.45;;;8.30;99.90;;;;;;5112482;28;20063;-66
2022/11/17 00:51:32;;;;;;;21.90;12.95;;;8.30;99.90;;;;;;5111014;28;20100;-66
2022/11/17 00:53:57;;;;;;;20.58;14.38;;;8.30;99.90;;;;;;5110374;28;20118;-66
2022/11/17 00:56:24;;;;;;;19.35;13.55;;;8.30;99.90;;;;;;5112066;28;20582;-66
2022/11/17 00:58:51;;;;;;;21.75;13.82;;;8.30;99.90;;;;;;5112409;28;20107;-66
2022/11/17 01:01:16;;;;;;;19.80;13.07;;;8.30;99.90;;;;;;5110352;28;20388;-66
2022/11/17 01:03:42;;;;;;;18.73;13.23;;;8.30;99.90;;;;;;5110991;28;20122;-66
2022/11/17 01:06:17;;;;;;;18.25;12.38;;;8.30;99.90;;;;;;5094250;28;20090;-67
2022/11/17 01:08:43;;;;;;;18.27;11.68;;;8.30;99.90;;;;;;5111391;28;20040;-66
2022/11/17 01:11:17;;;;;;;19.45;13.23;;;8.30;99.90;;;;;;5111110;28;20085;-66
2022/11/17 01:13:44;;;;;;;18.75;13.13;;;8.30;99.90;;;;;;5110775;28;20093;-66
2022/11/17 01:16:15;;;;;;;16.73;12.48;;;8.30;99.90;;;;;;5110521;28;20064;-66
2022/11/17 01:18:42;;;;;;;15.80;11.48;;;8.30;99.90;;;;;;5112439;28;20040;-66
2022/11/17 01:21:14;;;;;;;17.50;12.05;;;8.30;99.90;;;;;;5094033;28;20503;-66
2022/11/17 01:23:41;;;;;;;18.98;12.43;;;8.40;99.90;;;;;;5110422;28;20066;-66
2022/11/17 01:26:12;;;;;;;15.07;11.40;;;8.30;99.90;;;;;;5112160;28;20119;-66
2022/11/17 01:28:38;;;;;;;16.38;12.23;;;8.40;99.90;;;;;;5110001;28;20150;-66
2022/11/17 01:31:11;;;;;;;17.95;11.65;;;8.30;99.90;;;;;;5111950;28;20032;-66
2022/11/17 01:33:43;;;;;;;17.55;12.05;;;8.30;99.90;;;;;;5110317;28;20055;-66
2022/11/17 01:36:13;;;;;;;15.98;11.18;;;8.30;99.90;;;;;;5110142;28;20047;-66
2022/11/17 01:38:39;;;;;;;13.93;11.52;;;8.30;99.90;;;;;;5112237;28;20061;-66
2022/11/17 01:41:10;;;;;;;15.15;11.50;;;8.30;99.90;;;;;;5111871;28;20081;-66
2022/11/17 01:43:36;;;;;;;16.00;12.05;;;8.30;99.90;;;;;;5114877;28;20445;-66
2022/11/17 01:46:01;;;;;;;16.80;11.50;;;8.30;99.90;;;;;;5114268;28;20126;-66
2022/11/17 01:48:27;;;;;;;14.43;11.27;;;8.30;99.90;;;;;;5115393;28;20071;-66
2022/11/17 01:50:53;;;;;;;15.05;11.40;;;8.30;99.90;;;;;;5113504;28;20032;-66
2022/11/17 01:53:21;;;;;;;16.10;11.60;;;8.40;99.90;;;;;;5113979;28;20433;-66
2022/11/17 01:56:01;;;;;;;13.70;9.75;;;8.40;99.90;;;;;;5115107;28;20510;-66
2022/11/17 01:58:31;;;;;;;15.43;11.23;;;8.40;99.90;;;;;;5113279;28;20044;-66
2022/11/17 02:00:57;;;;;;;16.40;11.55;;;8.30;99.90;;;;;;5115039;28;20044;-66
2022/11/17 02:03:26;;;;;;;19.17;11.70;;;8.30;99.90;;;;;;5113961;28;20124;-66
2022/11/17 02:06:12;;;;;;;16.10;11.40;;;8.30;99.90;;;;;;5113351;28;20396;-66
2022/11/17 02:08:40;;;;;;;15.05;11.05;;;8.30;99.90;;;;;;5113948;28;20536;-66
2022/11/17 02:11:12;;;;;;;13.85;11.70;;;8.30;99.90;;;;;;5112859;28;20160;-66
2022/11/17 02:13:39;;;;;;;18.05;12.20;;;8.30;99.90;;;;;;5115116;28;20048;-66
2022/11/17 02:16:10;;;;;;;17.08;11.52;;;8.30;99.90;;;;;;5115039;28;20040;-66
2022/11/17 02:18:35;;;;;;;17.10;11.32;;;8.30;99.90;;;;;;5113206;28;20040;-66
2022/11/17 02:21:13;;;;;;;16.02;10.52;;;8.30;99.90;;;;;;5113601;28;20043;-66
2022/11/17 02:24:07;;;;;;;15.75;11.85;;;8.30;99.90;;;;;;5114892;28;20035;-66
2022/11/17 02:27:10;;;;;;;14.90;11.35;;;8.30;99.90;;;;;;5114253;28;20035;-66
2022/11/17 02:29:51;;;;;;;15.00;10.75;;;8.30;99.90;;;;;;5114660;28;20075;-67
2022/11/17 02:32:38;;;;;;;17.05;11.27;;;8.30;99.90;;;;;;5114090;28;20067;-67
2022/11/17 02:35:22;;;;;;;15.93;12.15;;;8.20;99.90;;;;;;5113167;28;20041;-66
2022/11/17 02:38:24;;;;;;;14.93;11.38;;;8.20;99.90;;;;;;5112974;28;20480;-66
2022/11/17 02:41:00;;;;;;;17.02;11.90;;;8.20;99.90;;;;;;5113742;28;20185;-67
2022/11/17 02:46:22;;;;;;;16.38;11.68;;;8.20;99.90;;;;;;5112250;28;20063;-67
2022/11/17 02:48:57;;;;;;;14.70;11.13;;;8.10;99.90;;;;;;5113269;28;20438;-66
2022/11/17 02:51:23;;;;;;;14.77;10.98;;;8.20;99.90;;;;;;5114465;28;20040;-66
2022/11/17 02:53:53;;;;;;;18.15;11.15;;;8.10;99.90;;;;;;5113297;28;20077;-66
2022/11/17 02:56:18;;;;;;;16.65;11.75;;;8.10;99.90;;;;;;5113030;28;20070;-66
2022/11/17 02:58:49;;;;;;;17.25;11.63;;;8.10;99.90;;;;;;5114055;28;20496;-66
2022/11/17 03:01:21;;;;;;;15.52;11.98;;;8.10;99.90;;;;;;5094938;28;20039;-66
2022/11/17 03:04:10;;;;;;;16.27;12.15;;;8.00;99.90;;;;;;5112604;28;20085;-66
2022/11/17 03:06:38;;;;;;;20.27;11.35;;;8.00;99.90;;;;;;5112821;28;20419;-66
2022/11/17 03:09:25;;;;;;;18.35;12.40;;;8.00;99.90;;;;;;5113043;28;20126;-66
2022/11/17 03:12:05;;;;;;;17.08;11.75;;;8.00;99.90;;;;;;5112642;28;20039;-66
2022/11/17 03:14:51;;;;;;;15.93;12.10;;;7.90;99.90;;;;;;5111607;28;20054;-66
2022/11/17 03:17:28;;;;;;;16.17;11.38;;;8.00;99.90;;;;;;5112497;28;20118;-66
2022/11/17 03:20:32;;;;;;;15.27;11.40;;;8.00;99.90;;;;;;5113539;28;20071;-66
2022/11/17 03:23:00;;;;;;;14.77;11.52;;;7.90;99.90;;;;;;5060308;28;20056;-66
2022/11/17 03:25:26;;;;;;;21.10;12.30;;;8.00;99.90;;;;;;5112483;28;20054;-66
2022/11/17 03:28:03;;;;;;;20.08;13.45;;;7.90;99.90;;;;;;5111985;28;20043;-67
2022/11/17 03:30:29;;;;;;;17.80;11.70;;;7.90;99.90;;;;;;5095256;28;20047;-67
2022/11/17 03:33:02;;;;;;;16.00;11.43;;;7.90;99.90;;;;;;5112156;28;20542;-66
2022/11/17 03:35:32;;;;;;;18.70;11.90;;;7.90;99.90;;;;;;5111483;28;20404;-66
2022/11/17 03:38:08;;;;;;;18.23;12.65;;;7.90;99.90;;;;;;5094872;28;20480;-67
2022/11/17 03:40:37;;;;;;;16.60;12.77;;;7.90;99.90;;;;;;5112129;28;20073;-67
2022/11/17 03:43:06;;;;;;;17.55;12.60;;;7.90;99.90;;;;;;5112345;28;20044;-67
2022/11/17 03:45:37;;;;;;;16.65;12.35;;;7.80;99.90;;;;;;5112047;28;20042;-67
2022/11/17 03:48:17;;;;;;;19.40;13.18;;;7.80;99.90;;;;;;5113339;28;20118;-67
2022/11/17 03:50:51;;;;;;;15.63;11.73;;;7.80;99.90;;;;;;5111057;28;20040;-67
2022/11/17 03:53:17;;;;;;;15.67;11.37;;;7.80;99.90;;;;;;5113037;28;20050;-67
2022/11/17 03:56:08;;;;;;;15.45;11.90;;;7.80;99.90;;;;;;5111826;28;20047;-67
2022/11/17 03:58:41;;;;;;;18.67;12.85;;;7.80;99.90;;;;;;5112328;28;20492;-67
2022/11/17 04:01:08;;;;;;;18.85;11.80;;;7.80;99.90;;;;;;5112134;28;20410;-67
2022/11/17 04:03:33;;;;;;;19.23;14.02;;;7.80;99.90;;;;;;5111641;28;20577;-67
2022/11/17 04:06:00;;;;;;;17.92;13.45;;;7.80;99.90;;;;;;5094347;28;20126;-67
2022/11/17 04:08:28;;;;;;;15.43;12.02;;;7.80;99.90;;;;;;5112921;28;20069;-67
2022/11/17 04:16:24;;;;;;;15.68;11.23;;;7.80;99.90;;;;;;5112626;28;20484;-67
2022/11/17 04:18:50;;;;;;;16.25;12.00;;;7.80;99.90;;;;;;5111641;28;20043;-67
2022/11/17 04:21:15;;;;;;;14.63;10.40;;;7.80;99.90;;;;;;5112610;28;20498;-67
2022/11/17 04:23:41;;;;;;;14.18;10.73;;;7.80;99.90;;;;;;5111436;28;20043;-67
2022/11/17 04:28:53;;;;;;;15.20;10.68;;;7.80;99.90;;;;;;5111188;28;20130;-67
2022/11/17 04:31:25;;;;;;;15.00;11.20;;;7.80;99.90;;;;;;5110466;28;20105;-67
2022/11/17 04:34:02;;;;;;;13.20;9.70;;;7.80;99.90;;;;;;5112084;28;20152;-67
2022/11/17 04:36:34;;;;;;;15.48;10.43;;;7.80;99.90;;;;;;5110976;28;20043;-67
2022/11/17 04:39:00;;;;;;;15.00;10.35;;;7.80;99.90;;;;;;5110171;28;20076;-67
2022/11/17 04:44:12;;;;;;;14.02;9.30;;;7.70;99.90;;;;;;5111337;28;20052;-67
2022/11/17 04:46:39;;;;;;;14.90;10.65;;;7.70;99.90;;;;;;5111741;28;20555;-67
2022/11/17 04:49:06;;;;;;;14.18;9.88;;;7.70;99.90;;;;;;5112031;28;20483;-67
2022/11/17 04:51:33;;;;;;;16.08;10.25;;;7.70;99.90;;;;;;5110938;28;20036;-67
2022/11/17 04:53:59;;;;;;;11.68;8.27;;;7.70;99.90;;;;;;5111537;28;20048;-67
2022/11/17 04:56:26;;;;;;;14.00;9.50;;;7.60;99.90;;;;;;5112260;28;20523;-67
2022/11/17 04:58:52;;;;;;;14.27;9.75;;;7.60;99.90;;;;;;5111029;28;20369;-67
2022/11/17 05:01:19;;;;;;;14.10;10.15;;;7.70;99.90;;;;;;5111457;28;20096;-67
2022/11/17 05:03:52;;;;;;;15.70;9.98;;;7.60;99.90;;;;;;5110982;28;20047;-67
2022/11/17 05:06:28;;;;;;;15.73;10.48;;;7.60;99.90;;;;;;5112010;28;20050;-67
2022/11/17 05:08:55;;;;;;;14.73;9.57;;;7.60;99.90;;;;;;5112140;28;20529;-67
2022/11/17 05:14:07;;;;;;;14.80;10.38;;;7.50;99.90;;;;;;5110094;28;20039;-67
2022/11/17 05:19:19;;;;;;;13.13;9.18;;;7.60;99.90;;;;;;5114838;28;20044;-67
2022/11/17 05:21:45;;;;;;;13.73;8.90;;;7.60;99.90;;;;;;5096934;28;20492;-67
2022/11/17 05:24:13;;;;;;;13.10;8.93;;;7.50;99.90;;;;;;5114940;28;20043;-67
2022/11/17 05:26:40;;;;;;;12.48;8.70;;;7.50;99.90;;;;;;5098108;28;20061;-67
2022/11/17 05:29:06;;;;;;;13.13;8.73;;;7.50;99.90;;;;;;5113702;28;20054;-67
2022/11/17 05:31:32;;;;;;;12.27;8.38;;;7.50;99.90;;;;;;5115763;28;20457;-67
2022/11/17 05:33:58;;;;;;;13.63;9.00;;;7.50;99.90;;;;;;5114168;28;20079;-66
2022/11/17 05:36:25;;;;;;;12.93;8.82;;;7.50;99.90;;;;;;5113550;28;20373;-67
2022/11/17 05:38:51;;;;;;;11.50;8.05;;;7.50;99.90;;;;;;5115562;28;20551;-67
2022/11/17 05:41:18;;;;;;;15.20;9.75;;;7.50;99.90;;;;;;5114560;28;20035;-67
2022/11/17 05:43:44;;;;;;;14.15;10.23;;;7.50;99.90;;;;;;5096459;28;20035;-67
2022/11/17 05:46:10;;;;;;;13.77;9.23;;;7.50;99.90;;;;;;5114411;28;20043;-66
2022/11/17 05:48:36;;;;;;;13.70;9.70;;;7.50;99.90;;;;;;5113556;28;20044;-66
2022/11/17 05:51:02;;;;;;;13.13;9.68;;;7.40;99.90;;;;;;5114118;28;20135;-66
2022/11/17 05:53:30;;;;;;;12.13;8.82;;;7.40;99.90;;;;;;5115411;28;20043;-66
2022/11/17 05:56:29;;;;;;;12.18;9.35;;;7.40;99.90;;;;;;5114509;28;20455;-66
2022/11/17 05:59:26;;;;;;;13.57;10.00;;;7.40;99.90;;;;;;5113998;28;20040;-66
2022/11/17 06:02:17;;;;;;;12.18;9.02;;;7.40;99.90;;;;;;5113887;28;20488;-66
2022/11/17 06:04:43;;;;;;;14.07;9.10;;;7.40;99.90;;;;;;5101575;28;20055;-66
2022/11/17 06:07:09;;;;;;;12.20;8.82;;;7.40;99.90;;;;;;5114451;28;20055;-66
2022/11/17 06:09:39;;;;;;;11.98;8.38;;;7.30;99.90;;;;;;5113849;28;20096;-66
2022/11/17 06:12:04;;;;;;;10.82;7.65;;;7.40;99.90;;;;;;5096284;28;20046;-66
2022/11/17 06:14:30;;;;;;;11.75;7.80;;;7.30;99.90;;;;;;5113651;28;20043;-66
2022/11/17 06:17:05;;;;;;;11.88;7.78;;;7.40;99.90;;;;;;5114017;28;20395;-66
2022/11/17 06:19:41;;;;;;;10.23;7.30;;;7.30;99.90;;;;;;5113722;28;20048;-66
2022/11/17 06:22:07;;;;;;;11.20;8.38;;;7.40;99.90;;;;;;5096733;28;20408;-66
2022/11/17 06:24:33;;;;;;;12.82;8.23;;;7.40;99.90;;;;;;5112730;28;20555;-66
2022/11/17 06:26:59;;;;;;;11.93;8.73;;;7.30;99.90;;;;;;5112944;28;20130;-66
2022/11/17 06:29:26;;;;;;;11.82;8.70;;;7.30;99.90;;;;;;5113192;28;20553;-66
2022/11/17 06:31:52;;;;;;;9.75;7.07;;;7.30;99.90;;;;;;5112615;28;20100;-66
2022/11/17 06:34:18;;;;;;;10.55;7.70;;;7.30;99.90;;;;;;5113099;28;20064;-66
2022/11/17 06:36:43;;;;;;;10.23;7.47;;;7.30;99.90;;;;;;5114579;28;20040;-66
2022/11/17 06:39:09;;;;;;;10.05;7.07;;;7.30;99.90;;;;;;5112662;28;20039;-66
2022/11/17 06:41:35;;;;;;;10.93;7.05;;;7.30;99.90;;;;;;5113591;28;20066;-66
2022/11/17 06:44:01;;;;;;;11.18;7.38;;;7.30;99.90;;;;;;5113105;28;20112;-66
2022/11/17 06:46:36;;;;;;;10.20;6.22;;;7.30;99.90;;;;;;5095403;28;20492;-66
2022/11/17 06:49:06;;;;;;;10.05;6.82;;;7.30;99.90;;;;;;5112941;28;20054;-66
2022/11/17 06:51:35;;;;;;;9.00;6.10;;;7.30;99.90;;;;;;5114306;28;20148;-66
2022/11/17 06:54:02;;;;;;;10.80;7.32;;;7.30;99.90;;;;;;5113329;28;20419;-66
2022/11/17 06:56:29;;;;;;;31.55;18.27;;;7.30;99.90;;;;;;5096052;28;20417;-66
2022/11/17 06:58:55;;;;;;;9.98;6.82;;;7.30;99.90;;;;;;5113697;28;20040;-65
2022/11/17 07:01:21;;;;;;;8.07;5.70;;;7.20;99.90;;;;;;5114201;28;20149;-66
2022/11/17 07:03:47;;;;;;;9.82;6.78;;;7.20;99.90;;;;;;5113011;28;20458;-65
2022/11/17 07:06:12;;;;;;;8.98;6.22;;;7.20;99.90;;;;;;5112172;28;20126;-65
2022/11/17 07:08:38;;;;;;;8.43;5.88;;;7.20;99.90;;;;;;5114261;28;20044;-65
2022/11/17 07:11:10;;;;;;;9.05;6.55;;;7.20;99.90;;;;;;5095402;28;20051;-65
2022/11/17 07:13:36;;;;;;;10.50;7.13;;;7.20;99.90;;;;;;5111535;28;20577;-65
2022/11/17 07:16:11;;;;;;;9.45;6.50;;;7.10;99.90;;;;;;5112517;28;20169;-65
2022/11/17 07:18:40;;;;;;;9.52;6.55;;;7.20;99.90;;;;;;5113691;28;20032;-65
2022/11/17 07:21:09;;;;;;;11.10;6.70;;;7.10;99.90;;;;;;5111607;28;20039;-65
2022/11/17 07:23:36;;;;;;;11.13;5.53;;;7.10;99.90;;;;;;5112569;28;20046;-65
2022/11/17 07:26:02;;;;;;;9.25;6.32;;;7.10;99.90;;;;;;5112472;28;20455;-65
2022/11/17 07:28:28;;;;;;;11.70;6.85;;;7.10;99.90;;;;;;5111577;28;20122;-65
2022/11/17 07:30:54;;;;;;;9.30;5.90;;;7.10;99.90;;;;;;5113409;28;20534;-65
2022/11/17 07:33:20;;;;;;;8.52;6.03;;;7.20;99.90;;;;;;5112058;28;20488;-65
2022/11/17 07:35:47;;;;;;;8.95;6.20;;;7.10;99.90;;;;;;5112535;28;20061;-65
2022/11/17 07:38:13;;;;;;;9.43;6.88;;;7.10;99.90;;;;;;5111548;28;20035;-65
2022/11/17 07:40:39;;;;;;;9.40;6.78;;;7.20;99.90;;;;;;5112183;28;20039;-65
2022/11/17 07:43:05;;;;;;;9.35;6.50;;;7.10;99.90;;;;;;5111069;28;20043;-65
2022/11/17 07:45:30;;;;;;;8.77;6.47;;;7.10;99.90;;;;;;5111829;28;20385;-65
2022/11/17 07:48:03;;;;;;;9.77;6.55;;;7.10;99.90;;;;;;5094852;28;20031;-65
2022/11/17 07:50:29;;;;;;;8.70;6.05;;;7.10;99.90;;;;;;5094080;28;20046;-65
2022/11/17 07:52:56;;;;;;;8.82;6.00;;;7.10;99.90;;;;;;5112884;28;20040;-65
2022/11/17 07:55:23;;;;;;;9.65;6.00;;;7.10;99.90;;;;;;5111041;28;20036;-66
2022/11/17 07:58:00;;;;;;;8.73;5.93;;;7.10;99.90;;;;;;5111496;28;20047;-65
2022/11/17 08:00:28;;;;;;;11.00;6.70;;;7.10;99.90;;;;;;5111943;28;20118;-65
2022/11/17 08:02:54;;;;;;;9.32;6.10;;;7.10;99.90;;;;;;5112166;28;20138;-65
2022/11/17 08:05:20;;;;;;;9.05;6.20;;;7.10;99.90;;;;;;5112696;28;20091;-65
2022/11/17 08:07:56;;;;;;;8.70;5.57;;;7.10;99.90;;;;;;5111722;28;20509;-65
2022/11/17 08:10:22;;;;;;;7.85;5.13;;;7.10;99.90;;;;;;5111031;28;20036;-65
2022/11/17 08:12:52;;;;;;;11.55;5.93;;;7.10;99.90;;;;;;5111378;28;20039;-65
2022/11/17 08:15:18;;;;;;;7.85;4.97;;;7.10;99.90;;;;;;5094275;28;20365;-65
2022/11/17 08:17:44;;;;;;;7.85;5.40;;;7.10;99.90;;;;;;5111850;28;20042;-65
2022/11/17 08:20:11;;;;;;;8.80;5.63;;;7.10;99.90;;;;;;5111860;28;20078;-65
2022/11/17 08:22:37;;;;;;;10.10;6.28;;;7.10;99.90;;;;;;5111381;28;20043;-65
2022/11/17 08:25:03;;;;;;;8.50;5.57;;;7.10;99.90;;;;;;5110476;28;20400;-65
2022/11/17 08:27:28;;;;;;;9.52;5.60;;;7.10;99.90;;;;;;5111218;28;20114;-65
2022/11/17 08:29:54;;;;;;;9.82;5.15;;;7.10;99.90;;;;;;5112535;28;20168;-65
2022/11/17 08:32:21;;;;;;;8.10;5.45;;;7.10;99.90;;;;;;5112070;28;20071;-65
2022/11/17 08:34:46;;;;;;;7.53;5.13;;;7.10;99.90;;;;;;5110811;28;20097;-65
2022/11/17 08:37:12;;;;;;;7.38;4.90;;;7.10;99.90;;;;;;5094683;28;20047;-65
2022/11/17 08:39:37;;;;;;;8.32;4.78;;;7.10;99.90;;;;;;5111403;28;20054;-65
2022/11/17 08:42:03;;;;;;;7.72;5.00;;;7.10;99.90;;;;;;5112484;28;20031;-65
2022/11/17 08:44:30;;;;;;;8.90;5.22;;;7.10;99.90;;;;;;5093394;28;20035;-65
2022/11/17 08:46:55;;;;;;;7.78;5.25;;;7.10;99.90;;;;;;5111081;28;20047;-65
2022/11/17 08:49:21;;;;;;;8.10;5.53;;;7.10;99.90;;;;;;5111409;28;20047;-65
2022/11/17 08:51:46;;;;;;;8.77;5.20;;;7.10;99.90;;;;;;5114603;28;20096;-65
2022/11/17 08:54:12;;;;;;;7.60;4.70;;;7.10;99.90;;;;;;5116813;28;20035;-65
2022/11/17 08:56:38;;;;;;;9.00;5.40;;;7.10;99.90;;;;;;5098451;28;20071;-65
2022/11/17 08:59:04;;;;;;;7.82;5.07;;;7.10;99.90;;;;;;5115721;28;20485;-65
2022/11/17 09:01:29;;;;;;;7.65;4.90;;;7.10;99.90;;;;;;5116437;28;20039;-65
2022/11/17 09:03:55;;;;;;;8.40;5.15;;;7.10;99.90;;;;;;5114957;28;20095;-65
2022/11/17 09:06:21;;;;;;;7.63;5.15;;;7.10;99.90;;;;;;5115815;28;20088;-65
2022/11/17 09:08:47;;;;;;;9.45;5.72;;;7.10;99.90;;;;;;5114762;28;20046;-65
2022/11/17 09:11:13;;;;;;;8.15;5.60;;;7.10;99.90;;;;;;5098280;28;20044;-65
2022/11/17 09:13:39;;;;;;;8.57;5.78;;;7.10;99.90;;;;;;5115649;28;20392;-65
2022/11/17 09:16:10;;;;;;;9.75;5.70;;;7.10;99.90;;;;;;5116030;28;20043;-65
2022/11/17 09:18:37;;;;;;;9.85;6.45;;;7.20;99.90;;;;;;5114049;28;20450;-65
2022/11/17 09:21:05;;;;;;;11.98;7.88;;;7.20;99.90;;;;;;5114154;28;20434;-65
2022/11/17 09:23:31;;;;;;;17.45;10.32;;;7.20;99.90;;;;;;5114769;28;20060;-65
2022/11/17 09:25:58;;;;;;;12.13;7.05;;;7.20;99.90;;;;;;5114556;28;20487;-65
2022/11/17 09:28:24;;;;;;;9.55;6.65;;;7.20;99.90;;;;;;5113783;28;20043;-65
2022/11/17 09:30:51;;;;;;;9.55;6.38;;;7.20;99.90;;;;;;5113762;27;20067;-66
2022/11/17 09:33:18;;;;;;;11.27;6.53;;;7.20;99.90;;;;;;5112481;28;20055;-66
2022/11/17 09:35:44;;;;;;;9.45;6.20;;;7.20;99.90;;;;;;5098009;28;20443;-67
2022/11/17 09:38:10;;;;;;;9.05;5.38;;;7.30;99.90;;;;;;5092058;28;20040;-68
2022/11/17 09:40:39;;;;;;;8.60;6.13;;;7.20;99.90;;;;;;5093040;28;20040;-67
2022/11/17 09:43:15;;;;;;;8.07;5.60;;;7.30;99.90;;;;;;5091335;28;20070;-64
2022/11/17 09:45:44;;;;;;;8.50;6.22;;;7.30;99.90;;;;;;5112844;28;20123;-70
2022/11/17 09:48:20;;;;;;;11.43;6.78;;;7.30;99.90;;;;;;5111682;28;20126;-67
2022/11/17 09:50:48;;;;;;;10.07;6.35;;;7.30;99.90;;;;;;5113725;28;20036;-69
2022/11/17 09:53:23;;;;;;;8.63;5.90;;;7.30;99.90;;;;;;5110442;28;20039;-70
2022/11/17 09:55:53;;;;;;;9.50;6.55;;;7.30;99.90;;;;;;5094772;28;20558;-67
2022/11/17 09:58:25;;;;;;;9.48;6.47;;;7.30;99.90;;;;;;5111027;28;20054;-66
2022/11/17 10:00:51;;;;;;;12.05;8.90;;;7.30;99.90;;;;;;5110996;28;20035;-65
2022/11/17 10:03:20;;;;;;;16.35;10.20;;;7.30;99.90;;;;;;5082794;28;20480;-68
2022/11/17 10:05:47;;;;;;;17.55;11.20;;;7.20;99.90;;;;;;5091246;28;20052;-66
2022/11/17 10:08:23;;;;;;;11.88;6.82;;;7.30;99.90;;;;;;5101404;28;20032;-66
2022/11/17 10:10:50;;;;;;;18.00;11.77;;;7.30;99.90;;;;;;5109927;28;20047;-67
2022/11/17 10:13:36;;;;;;;12.77;8.15;;;7.30;99.90;;;;;;5111280;28;20044;-66
2022/11/17 10:16:05;;;;;;;9.48;5.78;;;7.30;99.90;;;;;;5093669;28;20083;-66
2022/11/17 10:18:36;;;;;;;8.63;5.28;;;7.30;99.90;;;;;;5111532;28;20146;-67
2022/11/17 10:21:05;;;;;;;8.82;5.72;;;7.30;99.90;;;;;;5111269;28;20069;-66
2022/11/17 10:23:42;;;;;;;8.73;5.70;;;7.30;99.90;;;;;;5092821;28;20063;-67
2022/11/17 10:26:10;;;;;;;11.65;7.18;;;7.30;99.90;;;;;;5111390;28;20438;-67
2022/11/17 10:28:36;;;;;;;10.50;6.32;;;7.30;99.90;;;;;;5110981;28;20557;-66
2022/11/17 10:31:14;;;;;;;15.18;8.55;;;7.30;99.90;;;;;;5101813;28;20051;-67
2022/11/17 10:33:42;;;;;;;22.90;14.88;;;7.30;99.90;;;;;;5106131;28;20459;-67
2022/11/17 10:36:23;;;;;;;16.50;9.80;;;7.30;99.90;;;;;;5110472;28;20048;-67
2022/11/17 10:38:52;;;;;;;10.45;6.13;;;7.30;99.90;;;;;;5109912;28;20036;-67
2022/11/17 10:41:21;;;;;;;18.60;11.75;;;7.30;99.90;;;;;;5111806;28;20376;-67
2022/11/17 10:44:21;;;;;;;7.53;4.80;;;7.30;99.90;;;;;;5110127;28;20043;-67
2022/11/17 10:46:58;;;;;;;8.27;5.22;;;7.30;99.90;;;;;;5109614;28;20093;-67
2022/11/17 10:49:26;;;;;;;7.63;5.40;;;7.30;99.90;;;;;;5110546;28;20043;-67
2022/11/17 10:52:05;;;;;;;16.98;10.70;;;7.30;99.90;;;;;;5092426;28;20044;-66
2022/11/17 10:54:31;;;;;;;9.38;6.72;;;7.30;99.90;;;;;;5108224;28;20083;-67
2022/11/17 10:56:59;;;;;;;9.93;6.85;;;7.30;99.90;;;;;;5109215;28;20066;-67
2022/11/17 10:59:52;;;;;;;11.30;7.35;;;7.30;99.90;;;;;;5108781;28;20036;-67
2022/11/17 11:02:33;;;;;;;13.10;7.75;;;7.30;99.90;;;;;;5108529;28;20454;-67
2022/11/17 11:05:09;;;;;;;8.75;5.97;;;7.30;99.90;;;;;;5108747;28;20441;-67
2022/11/17 11:07:35;;;;;;;;;;;7.30;99.90;;;;;;5112012;28;20047;-67
2022/11/17 11:10:15;;;;;;;9.07;6.35;;;7.30;99.90;;;;;;5110469;28;20396;-67
2022/11/17 11:13:15;;;;;;;7.88;5.32;;;7.30;99.90;;;;;;5109301;28;20093;-67
2022/11/17 11:15:41;;;;;;;8.43;5.32;;;7.30;99.90;;;;;;5110997;28;20411;-67
2022/11/17 11:18:16;;;;;;;7.82;5.40;;;7.30;99.90;;;;;;5111564;28;20046;-65
2022/11/17 11:21:12;;;;;;;8.30;5.90;;;7.30;99.90;;;;;;5109256;28;20035;-66
2022/11/17 11:24:09;;;;;;;9.20;5.75;;;7.30;99.90;;;;;;5109869;28;20058;-66
2022/11/17 11:26:54;;;;;;;9.45;5.80;;;7.40;99.90;;;;;;5110269;28;20441;-67
2022/11/17 11:29:36;;;;;;;7.07;5.03;;;7.40;99.90;;;;;;5109528;28;20054;-67
2022/11/17 11:32:34;;;;;;;8.10;5.70;;;7.30;99.90;;;;;;5109649;28;20048;-66
2022/11/17 11:35:37;;;;;;;8.80;6.28;;;7.40;99.90;;;;;;5108296;28;20047;-66
2022/11/17 11:38:18;;;;;;;8.27;5.57;;;7.40;99.90;;;;;;5102853;28;20448;-67
2022/11/17 11:41:10;;;;;;;8.85;4.88;;;7.40;99.90;;;;;;5109576;28;20096;-67
2022/11/17 11:44:01;;;;;;;8.55;4.90;;;7.50;99.90;;;;;;5089057;28;20066;-67
2022/11/17 11:46:46;;;;;;;19.90;11.85;;;7.40;99.90;;;;;;5097061;28;20086;-67
2022/11/17 11:49:29;;;;;;;12.02;7.05;;;7.50;99.90;;;;;;5108477;28;20047;-67
2022/11/17 11:51:56;;;;;;;14.20;8.43;;;7.50;99.90;;;;;;5109918;28;20086;-66
2022/11/17 11:54:31;;;;;;;7.03;4.20;;;7.50;99.90;;;;;;5105760;28;20057;-67
2022/11/17 11:56:57;;;;;;;7.93;4.78;;;7.50;99.90;;;;;;5108435;28;20615;-66
2022/11/17 11:59:48;;;;;;;7.93;4.65;;;7.50;99.90;;;;;;5109512;28;20061;-67
2022/11/17 12:02:26;;;;;;;6.13;3.70;;;7.50;99.90;;;;;;5109886;28;20032;-66
2022/11/17 12:05:18;;;;;;;6.93;4.00;;;7.50;99.90;;;;;;5071654;28;20477;-67
2022/11/17 12:08:00;;;;;;;7.20;5.15;;;7.50;99.90;;;;;;5108109;28;20400;-67
2022/11/17 12:10:28;;;;;;;6.80;3.85;;;7.50;99.90;;;;;;5109102;28;20397;-67
2022/11/17 12:12:55;;;;;;;6.88;4.13;;;7.60;99.90;;;;;;5109110;28;20078;-67
2022/11/17 12:15:20;;;;;;;6.32;4.13;;;7.60;99.90;;;;;;5108576;28;20054;-66
2022/11/17 12:17:59;;;;;;;6.57;3.53;;;7.60;99.90;;;;;;5109034;28;20419;-67
2022/11/17 12:20:52;;;;;;;6.80;4.20;;;7.60;99.90;;;;;;5091673;28;20044;-66
2022/11/17 12:23:37;;;;;;;7.28;4.35;;;7.60;99.90;;;;;;5107788;28;20058;-66
2022/11/17 12:26:03;;;;;;;6.40;3.97;;;7.60;99.90;;;;;;5108648;28;20530;-67
2022/11/17 12:28:31;;;;;;;7.95;4.68;;;7.60;99.90;;;;;;5109652;28;20036;-66
2022/11/17 12:31:04;;;;;;;7.88;3.72;;;7.60;99.90;;;;;;5109279;28;20131;-66
2022/11/17 12:33:51;;;;;;;6.50;3.95;;;7.60;99.90;;;;;;5089928;28;21980;-66
2022/11/17 12:36:40;;;;;;;7.28;4.20;;;7.60;99.90;;;;;;5107827;28;20126;-67
2022/11/17 12:39:44;;;;;;;6.50;4.03;;;7.60;99.90;;;;;;5087921;28;20089;-67
2022/11/17 12:42:10;;;;;;;7.30;4.35;;;7.60;99.90;;;;;;5103016;28;20036;-67
2022/11/17 12:44:36;;;;;;;7.22;4.53;;;7.60;99.90;;;;;;5090695;28;20054;-67
2022/11/17 12:47:24;;;;;;;7.25;4.28;;;7.60;99.90;;;;;;5107685;28;20440;-67
2022/11/17 12:50:18;;;;;;;7.53;4.50;;;7.60;99.90;;;;;;5108193;28;20567;-67
2022/11/17 12:52:49;;;;;;;7.53;4.13;;;7.60;99.90;;;;;;5106531;28;20483;-67
2022/11/17 12:55:27;;;;;;;8.50;4.88;;;7.60;99.90;;;;;;5108319;28;20040;-67
2022/11/17 12:58:40;;;;;;;6.30;3.95;;;7.60;99.90;;;;;;5107603;28;20036;-67
2022/11/17 13:01:15;;;;;;;7.00;4.40;;;7.60;99.90;;;;;;5031528;28;20056;-67
2022/11/17 13:04:05;;;;;;;7.93;4.95;;;7.60;99.90;;;;;;5108552;28;20040;-67
2022/11/17 13:06:31;;;;;;;10.90;6.95;;;7.70;99.90;;;;;;5107781;28;20052;-67
2022/11/17 13:09:10;;;;;;;18.42;9.13;;;7.60;99.90;;;;;;5107173;28;20036;-67
2022/11/17 13:11:36;;;;;;;46.42;18.85;;;7.60;99.90;;;;;;5107049;28;20112;-67
2022/11/17 13:14:15;;;;;;;36.30;14.80;;;7.60;99.90;;;;;;5106861;28;20491;-67
2022/11/17 13:16:50;;;;;;;32.97;14.48;;;7.70;99.90;;;;;;5083679;28;20036;-66
2022/11/17 13:19:40;;;;;;;50.17;20.70;;;7.70;99.90;;;;;;5106449;28;20526;-65
2022/11/17 13:22:15;;;;;;;54.92;22.77;;;7.70;99.90;;;;;;5089479;28;20036;-65
2022/11/17 13:24:45;;;;;;;;;;;7.70;99.90;;;;;;5108936;28;20050;-65
2022/11/17 13:27:26;;;;;;;20.90;13.15;;;7.70;99.90;;;;;;5107219;28;19958;-65
2022/11/17 13:30:10;;;;;;;10.27;6.45;;;7.70;99.90;;;;;;5107102;28;20036;-65
2022/11/17 13:32:38;;;;;;;11.50;7.50;;;7.70;99.90;;;;;;5108460;28;20104;-65
2022/11/17 13:35:17;;;;;;;11.07;9.00;;;7.70;99.90;;;;;;5106219;28;20334;-66
2022/11/17 13:37:43;;;;;;;8.82;6.40;;;7.80;99.90;;;;;;5091454;28;20043;-67
2022/11/17 13:40:20;;;;;;;8.18;5.18;;;7.80;99.90;;;;;;5111858;28;20495;-67